createdAt,value
2018-07-23T00:00:16.479Z,27.57
2018-07-23T00:02:20.026Z,28.03
2018-07-23T00:04:23.545Z,29.17
2018-07-23T00:06:27.081Z,27.07
2018-07-23T00:08:30.600Z,26.60
2018-07-23T00:10:34.489Z,25.83
2018-07-23T00:12:38.020Z,26.50
2018-07-23T00:14:41.572Z,25.77
2018-07-23T00:16:45.326Z,24.73
2018-07-23T00:18:48.879Z,27.23
2018-07-23T00:20:52.427Z,26.03
2018-07-23T00:22:55.959Z,25.47
2018-07-23T00:24:59.502Z,26.83
2018-07-23T00:27:03.046Z,26.30
2018-07-23T00:29:06.593Z,25.17
2018-07-23T00:31:10.208Z,26.77
2018-07-23T00:33:13.737Z,27.60
2018-07-23T00:35:17.328Z,28.10
2018-07-23T00:37:20.797Z,26.00
2018-07-23T00:39:24.340Z,27.63
2018-07-23T00:41:27.886Z,27.77
2018-07-23T00:43:31.380Z,28.10
2018-07-23T00:45:34.912Z,29.40
2018-07-23T00:47:38.856Z,29.33
2018-07-23T00:49:42.369Z,28.03
2018-07-23T00:51:45.892Z,29.97
2018-07-23T00:53:49.432Z,28.37
2018-07-23T00:55:52.954Z,27.80
2018-07-23T00:57:56.495Z,29.33
2018-07-23T01:00:00.368Z,29.87
2018-07-23T01:02:03.963Z,27.57
2018-07-23T01:04:07.500Z,30.23
2018-07-23T01:06:11.047Z,29.30
2018-07-23T01:08:14.616Z,31.47
2018-07-23T01:10:18.155Z,27.73
2018-07-23T01:12:35.006Z,30.90
2018-07-23T01:14:38.556Z,31.77
2018-07-23T01:16:42.156Z,30.10
2018-07-23T01:18:45.713Z,28.80
2018-07-23T01:20:49.280Z,28.10
2018-07-23T01:22:52.852Z,27.60
2018-07-23T01:24:57.376Z,30.17
2018-07-23T01:27:01.019Z,30.07
2018-07-23T01:29:04.768Z,29.33
2018-07-23T01:31:08.440Z,27.00
2018-07-23T01:33:12.016Z,28.53
2018-07-23T01:35:15.525Z,28.30
2018-07-23T01:37:19.479Z,28.93
2018-07-23T01:39:23.063Z,29.53
2018-07-23T01:41:26.615Z,30.83
2018-07-23T01:43:30.123Z,29.30
2018-07-23T01:45:34.024Z,28.40
2018-07-23T01:47:37.503Z,28.37
2018-07-23T01:49:41.002Z,27.93
2018-07-23T01:51:44.588Z,27.20
2018-07-23T01:53:48.095Z,28.47
2018-07-23T01:55:51.631Z,28.30
2018-07-23T01:57:55.185Z,28.40
2018-07-23T01:59:59.069Z,28.37
2018-07-23T02:02:02.590Z,31.30
2018-07-23T02:04:06.100Z,28.40
2018-07-23T02:06:10.255Z,29.30
2018-07-23T02:08:13.760Z,29.47
2018-07-23T02:10:17.282Z,28.47
2018-07-23T02:12:20.853Z,29.20
2018-07-23T02:14:24.414Z,29.47
2018-07-23T02:16:28.048Z,30.30
2018-07-23T02:18:31.836Z,29.37
2018-07-23T02:20:35.431Z,30.07
2018-07-23T02:22:39.032Z,31.73
2018-07-23T02:24:42.552Z,30.67
2018-07-23T02:26:46.474Z,28.63
2018-07-23T02:28:50.007Z,31.03
2018-07-23T02:30:53.909Z,32.57
2018-07-23T02:32:57.417Z,31.23
2018-07-23T02:35:00.945Z,31.40
2018-07-23T02:37:04.543Z,33.00
2018-07-23T02:39:10.665Z,31.33
2018-07-23T02:41:14.263Z,32.47
2018-07-23T02:43:17.809Z,30.77
2018-07-23T02:45:21.355Z,33.77
2018-07-23T02:47:24.908Z,30.63
2018-07-23T02:49:28.460Z,30.60
2018-07-23T02:51:32.045Z,30.77
2018-07-23T02:53:35.965Z,31.03
2018-07-23T02:55:39.861Z,30.37
2018-07-23T02:57:43.465Z,30.70
2018-07-23T02:59:46.981Z,30.73
2018-07-23T03:01:50.539Z,30.33
2018-07-23T03:03:56.336Z,28.17
2018-07-23T03:06:00.286Z,28.00
2018-07-23T03:08:03.968Z,29.17
2018-07-23T03:10:07.853Z,26.60
2018-07-23T03:12:11.475Z,27.40
2018-07-23T03:14:15.044Z,27.77
2018-07-23T03:16:19.050Z,28.57
2018-07-23T03:18:22.592Z,27.73
2018-07-23T03:20:26.109Z,28.17
2018-07-23T03:22:30.047Z,27.50
2018-07-23T03:24:33.569Z,29.73
2018-07-23T03:26:37.101Z,29.13
2018-07-23T03:28:40.575Z,30.10
2018-07-23T03:30:44.101Z,31.03
2018-07-23T03:32:47.671Z,31.00
2018-07-23T03:34:51.192Z,33.30
2018-07-23T03:36:55.080Z,30.30
2018-07-23T03:38:58.660Z,33.03
2018-07-23T03:41:02.221Z,31.67
2018-07-23T03:43:05.801Z,31.27
2018-07-23T03:45:09.318Z,31.63
2018-07-23T03:47:12.846Z,32.63
2018-07-23T03:49:16.762Z,31.47
2018-07-23T03:51:20.314Z,34.87
2018-07-23T03:53:24.236Z,32.67
2018-07-23T03:55:27.752Z,33.87
2018-07-23T03:57:31.311Z,31.23
2018-07-23T03:59:34.884Z,30.37
2018-07-23T04:01:38.467Z,31.57
2018-07-23T04:03:41.969Z,30.93
2018-07-23T04:05:45.521Z,31.57
2018-07-23T04:07:49.090Z,30.57
2018-07-23T04:09:52.631Z,30.37
2018-07-23T04:11:56.338Z,30.80
2018-07-23T04:13:59.861Z,29.17
2018-07-23T04:16:03.445Z,27.93
2018-07-23T04:18:07.008Z,27.53
2018-07-23T04:20:10.934Z,28.27
2018-07-23T04:22:14.463Z,27.70
2018-07-23T04:24:17.970Z,26.70
2018-07-23T04:26:21.529Z,27.17
2018-07-23T04:28:25.075Z,25.80
2018-07-23T04:30:28.868Z,25.40
2018-07-23T04:32:32.468Z,26.87
2018-07-23T04:34:36.004Z,26.33
2018-07-23T04:36:39.556Z,25.83
2018-07-23T04:38:43.120Z,24.53
2018-07-23T04:40:46.568Z,24.93
2018-07-23T04:42:50.163Z,23.80
2018-07-23T04:44:53.674Z,24.13
2018-07-23T04:46:57.283Z,24.37
2018-07-23T04:49:00.844Z,24.90
2018-07-23T04:51:04.432Z,21.90
2018-07-23T04:53:07.974Z,24.47
2018-07-23T04:55:11.602Z,24.43
2018-07-23T04:57:15.132Z,23.00
2018-07-23T04:59:19.037Z,21.63
2018-07-23T05:01:22.641Z,22.17
2018-07-23T05:03:26.211Z,21.43
2018-07-23T05:05:29.734Z,21.43
2018-07-23T05:07:33.255Z,22.27
2018-07-23T05:09:36.824Z,21.27
2018-07-23T05:11:41.032Z,19.53
2018-07-23T05:13:45.040Z,20.20
2018-07-23T05:15:48.551Z,21.70
2018-07-23T05:17:52.256Z,21.20
2018-07-23T05:19:55.828Z,21.47
2018-07-23T05:21:59.533Z,22.90
2018-07-23T05:24:03.096Z,21.00
2018-07-23T05:26:07.582Z,21.67
2018-07-23T05:28:11.333Z,19.50
2018-07-23T05:30:15.074Z,20.53
2018-07-23T05:32:18.595Z,20.80
2018-07-23T05:34:22.360Z,20.00
2018-07-23T05:36:26.024Z,20.53
2018-07-23T05:38:29.822Z,20.67
2018-07-23T05:40:33.563Z,19.80
2018-07-23T05:42:37.152Z,19.07
2018-07-23T05:44:40.771Z,17.53
2018-07-23T05:46:44.482Z,18.70
2018-07-23T05:48:48.224Z,19.17
2018-07-23T05:50:51.755Z,18.53
2018-07-23T05:52:55.320Z,18.10
2018-07-23T05:54:58.886Z,18.57
2018-07-23T05:57:02.462Z,20.27
2018-07-23T05:59:06.432Z,19.93
2018-07-23T06:01:09.961Z,19.63
2018-07-23T06:03:13.736Z,18.17
2018-07-23T06:05:17.996Z,16.63
2018-07-23T06:07:21.573Z,16.83
2018-07-23T06:09:25.256Z,16.20
2018-07-23T06:11:28.897Z,15.53
2018-07-23T06:13:32.542Z,14.03
2018-07-23T06:15:36.183Z,15.00
2018-07-23T06:17:40.096Z,14.57
2018-07-23T06:19:43.756Z,13.60
2018-07-23T06:21:47.391Z,13.03
2018-07-23T06:23:50.968Z,14.50
2018-07-23T06:25:54.795Z,16.40
2018-07-23T06:27:58.428Z,13.67
2018-07-23T06:30:02.456Z,13.50
2018-07-23T06:32:06.615Z,13.53
2018-07-23T06:34:10.203Z,14.50
2018-07-23T06:36:13.900Z,13.20
2018-07-23T06:38:17.519Z,11.27
2018-07-23T06:40:21.301Z,11.60
2018-07-23T06:42:24.950Z,11.70
2018-07-23T06:44:29.389Z,11.70
2018-07-23T06:46:32.965Z,14.53
2018-07-23T06:48:36.790Z,12.10
2018-07-23T06:50:40.385Z,12.00
2018-07-23T06:52:43.943Z,12.87
2018-07-23T06:54:48.556Z,47.53
2018-07-23T06:56:53.398Z,13.23
2018-07-23T06:58:57.146Z,12.43
2018-07-23T07:01:01.519Z,10.57
2018-07-23T07:03:05.858Z,12.53
2018-07-23T07:05:09.506Z,12.13
2018-07-23T07:07:13.431Z,11.20
2018-07-23T07:09:17.114Z,11.33
2018-07-23T07:11:20.706Z,11.73
2018-07-23T07:13:24.455Z,12.13
2018-07-23T07:15:28.340Z,11.80
2018-07-23T07:17:32.027Z,10.67
2018-07-23T07:19:35.690Z,11.07
2018-07-23T07:21:39.332Z,11.93
2018-07-23T07:23:42.998Z,11.77
2018-07-23T07:25:46.733Z,9.63
2018-07-23T07:27:50.400Z,8.90
2018-07-23T07:29:53.988Z,10.40
2018-07-23T07:31:57.547Z,11.13
2018-07-23T07:34:01.766Z,10.10
2018-07-23T07:36:05.434Z,10.40
2018-07-23T07:38:09.023Z,10.60
2018-07-23T07:40:12.724Z,10.70
2018-07-23T07:42:16.741Z,9.40
2018-07-23T07:44:20.430Z,9.53
2018-07-23T07:46:24.396Z,10.10
2018-07-23T07:48:28.212Z,9.83
2018-07-23T07:50:31.777Z,10.17
2018-07-23T07:52:35.372Z,9.90
2018-07-23T07:54:39.028Z,9.20
2018-07-23T07:56:43.755Z,9.13
2018-07-23T07:58:47.331Z,10.00
2018-07-23T08:00:50.929Z,8.83
2018-07-23T08:02:54.474Z,8.30
2018-07-23T08:04:58.037Z,8.70
2018-07-23T08:07:01.957Z,9.50
2018-07-23T08:09:08.742Z,8.50
2018-07-23T08:11:12.413Z,8.70
2018-07-23T08:13:16.028Z,8.70
2018-07-23T08:15:19.555Z,8.60
2018-07-23T08:17:23.533Z,8.30
2018-07-23T08:19:27.918Z,8.27
2018-07-23T08:21:31.460Z,8.07
2018-07-23T08:23:35.145Z,8.70
2018-07-23T08:25:39.234Z,7.73
2018-07-23T08:27:42.797Z,8.67
2018-07-23T08:29:46.584Z,8.87
2018-07-23T08:31:50.506Z,8.93
2018-07-23T08:33:54.240Z,8.50
2018-07-23T08:35:58.014Z,8.27
2018-07-23T08:38:01.644Z,7.40
2018-07-23T08:40:06.195Z,7.93
2018-07-23T08:42:10.271Z,8.70
2018-07-23T08:44:13.906Z,7.20
2018-07-23T08:46:17.984Z,7.97
2018-07-23T08:48:21.674Z,8.43
2018-07-23T08:50:25.220Z,8.87
2018-07-23T08:52:29.344Z,9.60
2018-07-23T08:54:33.030Z,8.53
2018-07-23T08:56:36.741Z,9.10
2018-07-23T08:58:40.221Z,9.30
2018-07-23T09:00:43.804Z,9.10
2018-07-23T09:02:47.499Z,8.00
2018-07-23T09:04:51.236Z,8.80
2018-07-23T09:06:54.900Z,8.10
2018-07-23T09:08:58.481Z,9.23
2018-07-23T09:11:02.086Z,9.00
2018-07-23T09:13:05.982Z,8.00
2018-07-23T09:15:10.498Z,8.50
2018-07-23T09:17:14.234Z,8.30
2018-07-23T09:19:18.560Z,7.97
2018-07-23T09:21:22.456Z,7.70
2018-07-23T09:23:26.557Z,7.62
2018-07-23T09:25:35.475Z,7.60
2018-07-23T09:27:39.088Z,90.70
2018-07-23T09:29:45.500Z,8.35
2018-07-23T09:31:49.001Z,9.27
2018-07-23T09:33:52.645Z,11.40
2018-07-23T09:35:56.207Z,7.77
2018-07-23T09:37:59.764Z,7.47
2018-07-23T09:40:03.392Z,7.92
2018-07-23T09:42:07.462Z,7.30
2018-07-23T09:44:12.031Z,6.90
2018-07-23T09:46:17.915Z,8.00
2018-07-23T09:48:21.590Z,8.13
2018-07-23T09:50:25.193Z,8.10
2018-07-23T09:52:29.947Z,8.55
2018-07-23T09:54:33.593Z,8.05
2018-07-23T09:56:38.618Z,8.38
2018-07-23T09:58:42.779Z,8.60
2018-07-23T10:00:51.665Z,8.98
2018-07-23T10:02:56.600Z,7.92
2018-07-23T10:05:00.418Z,8.23
2018-07-23T10:07:04.131Z,7.53
2018-07-23T10:09:11.536Z,10.38
2018-07-23T10:11:15.177Z,8.80
2018-07-23T10:13:18.723Z,8.18
2018-07-23T10:15:22.466Z,8.75
2018-07-23T10:17:26.222Z,8.20
2018-07-23T10:19:30.395Z,8.03
2018-07-23T10:21:34.277Z,7.70
2018-07-23T10:23:38.537Z,9.38
2018-07-23T10:25:46.656Z,8.00
2018-07-23T10:27:51.098Z,8.40
2018-07-23T10:29:55.941Z,8.08
2018-07-23T10:32:00.214Z,8.13
2018-07-23T10:34:04.563Z,7.70
2018-07-23T10:36:18.873Z,6.40
2018-07-23T10:41:01.872Z,7.10
2018-07-23T10:43:10.376Z,7.40
2018-07-23T10:45:14.102Z,11.73
2018-07-23T10:47:19.450Z,8.40
2018-07-23T10:49:25.183Z,8.40
2018-07-23T10:51:29.653Z,8.27
2018-07-23T10:53:35.935Z,8.73
2018-07-23T10:55:54.094Z,7.63
2018-07-23T10:58:00.743Z,7.77
2018-07-23T11:00:05.425Z,8.33
2018-07-23T11:02:09.083Z,8.00
2018-07-23T11:04:13.799Z,7.27
2018-07-23T11:06:17.785Z,6.30
2018-07-23T11:08:21.393Z,6.00
2018-07-23T11:10:25.096Z,5.63
2018-07-23T11:12:28.979Z,5.87
2018-07-23T11:14:32.590Z,5.17
2018-07-23T11:16:36.305Z,6.05
2018-07-23T11:18:39.842Z,7.10
2018-07-23T11:20:46.250Z,6.20
2018-07-23T11:22:49.834Z,6.85
2018-07-23T11:24:53.567Z,6.13
2018-07-23T11:26:57.499Z,5.65
2018-07-23T11:29:02.354Z,7.10
2018-07-23T11:31:06.265Z,5.90
2018-07-23T11:33:10.052Z,5.78
2018-07-23T11:35:13.690Z,6.20
2018-07-23T11:37:19.363Z,6.63
2018-07-23T11:39:24.270Z,5.12
2018-07-23T11:41:31.072Z,6.20
2018-07-23T11:43:34.866Z,5.23
2018-07-23T11:45:38.751Z,5.37
2018-07-23T11:47:43.866Z,5.63
2018-07-23T11:49:48.664Z,5.43
2018-07-23T11:51:52.440Z,6.33
2018-07-23T11:53:56.512Z,7.07
2018-07-23T11:56:00.645Z,5.10
2018-07-23T11:58:04.625Z,5.33
2018-07-23T12:00:08.276Z,6.17
2018-07-23T12:02:12.067Z,5.50
2018-07-23T12:04:15.732Z,5.17
2018-07-23T12:06:19.535Z,5.77
2018-07-23T12:08:23.220Z,6.90
2018-07-23T12:10:26.823Z,5.77
2018-07-23T12:12:30.501Z,6.00
2018-07-23T12:14:34.105Z,5.77
2018-07-23T12:16:40.976Z,5.70
2018-07-23T12:18:45.176Z,5.85
2018-07-23T12:20:48.807Z,6.00
2018-07-23T12:22:52.362Z,6.90
2018-07-23T12:24:56.208Z,5.87
2018-07-23T12:26:59.830Z,5.50
2018-07-23T12:29:03.562Z,6.90
2018-07-23T12:31:07.694Z,6.53
2018-07-23T12:33:11.494Z,5.90
2018-07-23T12:35:15.085Z,5.93
2018-07-23T12:37:18.800Z,6.17
2018-07-23T12:39:24.029Z,7.47
2018-07-23T12:41:27.873Z,5.67
2018-07-23T12:43:31.519Z,6.00
2018-07-23T12:45:35.376Z,5.77
2018-07-23T12:47:39.084Z,5.93
2018-07-23T12:49:42.752Z,6.00
2018-07-23T12:51:46.346Z,5.50
2018-07-23T12:53:50.208Z,5.90
2018-07-23T12:55:53.977Z,6.40
2018-07-23T12:57:57.648Z,6.60
2018-07-23T13:00:01.336Z,5.53
2018-07-23T13:02:05.941Z,6.10
2018-07-23T13:04:09.531Z,5.57
2018-07-23T13:06:13.053Z,7.67
2018-07-23T13:08:16.605Z,5.90
2018-07-23T13:10:20.154Z,6.00
2018-07-23T13:12:24.316Z,7.70
2018-07-23T13:14:27.898Z,5.97
2018-07-23T13:16:31.544Z,7.27
2018-07-23T13:18:35.604Z,5.73
2018-07-23T13:20:39.159Z,5.93
2018-07-23T13:22:42.691Z,5.60
2018-07-23T13:24:46.270Z,5.90
2018-07-23T13:26:49.942Z,5.70
2018-07-23T13:28:53.881Z,5.53
2018-07-23T13:31:01.442Z,5.77
2018-07-23T13:33:05.249Z,6.27
2018-07-23T13:35:08.953Z,5.47
2018-07-23T13:37:12.710Z,7.23
2018-07-23T13:39:16.477Z,6.13
2018-07-23T13:41:20.378Z,8.20
2018-07-23T13:43:24.049Z,6.10
2018-07-23T13:45:27.756Z,5.93
2018-07-23T13:47:31.705Z,6.07
2018-07-23T13:49:35.384Z,6.00
2018-07-23T13:51:39.365Z,4.80
2018-07-23T13:53:43.581Z,7.43
2018-07-23T13:55:47.221Z,5.93
2018-07-23T13:57:51.487Z,6.03
2018-07-23T13:59:56.066Z,5.83
2018-07-23T14:01:59.732Z,6.37
2018-07-23T14:04:04.887Z,5.67
2018-07-23T14:06:10.544Z,6.33
2018-07-23T14:08:14.969Z,5.97
2018-07-23T14:10:18.581Z,5.77
2018-07-23T14:12:22.408Z,6.37
2018-07-23T14:14:25.970Z,6.23
2018-07-23T14:16:29.596Z,5.67
2018-07-23T14:18:33.187Z,5.90
2018-07-23T14:20:37.340Z,5.87
2018-07-23T14:22:40.929Z,6.03
2018-07-23T14:24:44.902Z,7.33
2018-07-23T14:26:48.508Z,5.70
2018-07-23T14:28:52.205Z,5.73
2018-07-23T14:30:56.869Z,5.73
2018-07-23T14:33:00.596Z,6.10
2018-07-23T14:35:04.221Z,5.70
2018-07-23T14:37:07.761Z,6.10
2018-07-23T14:39:13.504Z,6.17
2018-07-23T14:41:17.092Z,6.03
2018-07-23T14:43:20.861Z,7.87
2018-07-23T14:45:24.502Z,5.77
2018-07-23T14:47:28.139Z,6.20
2018-07-23T14:49:31.745Z,5.77
2018-07-23T14:51:35.730Z,6.40
2018-07-23T14:53:39.324Z,7.10
2018-07-23T14:55:42.976Z,5.77
2018-07-23T14:57:46.760Z,5.97
2018-07-23T14:59:50.491Z,6.40
2018-07-23T15:02:00.895Z,5.87
2018-07-23T15:04:04.512Z,6.13
2018-07-23T15:06:08.153Z,6.10
2018-07-23T15:08:11.762Z,6.00
2018-07-23T15:10:15.354Z,6.47
2018-07-23T15:12:18.996Z,7.80
2018-07-23T15:14:23.079Z,5.90
2018-07-23T15:16:26.763Z,5.97
2018-07-23T15:18:30.771Z,6.23
2018-07-23T15:20:34.395Z,7.77
2018-07-23T15:22:38.068Z,7.23
2018-07-23T15:24:41.664Z,6.83
2018-07-23T15:26:45.292Z,6.63
2018-07-23T15:28:49.092Z,7.40
2018-07-23T15:30:52.589Z,7.17
2018-07-23T15:32:56.253Z,8.43
2018-07-23T15:35:00.057Z,7.93
2018-07-23T15:37:03.688Z,7.70
2018-07-23T15:39:09.165Z,8.53
2018-07-23T15:41:12.784Z,6.47
2018-07-23T15:43:16.356Z,7.53
2018-07-23T15:45:20.199Z,6.37
2018-07-23T15:47:24.009Z,7.33
2018-07-23T15:49:27.800Z,6.50
2018-07-23T15:51:31.486Z,6.80
2018-07-23T15:53:35.099Z,6.33
2018-07-23T15:55:38.817Z,8.53
2018-07-23T15:57:42.421Z,6.87
2018-07-23T15:59:46.073Z,6.93
2018-07-23T16:01:49.699Z,6.90
2018-07-23T16:03:53.262Z,7.43
2018-07-23T16:05:56.878Z,7.57
2018-07-23T16:08:00.477Z,7.90
2018-07-23T16:10:04.173Z,7.00
2018-07-23T16:12:07.861Z,8.07
2018-07-23T16:14:11.981Z,7.50
2018-07-23T16:16:15.988Z,7.83
2018-07-23T16:18:19.582Z,8.27
2018-07-23T16:20:23.299Z,8.90
2018-07-23T16:22:26.890Z,8.10
2018-07-23T16:24:30.594Z,7.03
2018-07-23T16:26:34.662Z,9.27
2018-07-23T16:28:38.282Z,7.50
2018-07-23T16:30:41.940Z,8.83
2018-07-23T16:32:45.587Z,7.20
2018-07-23T16:34:49.291Z,6.90
2018-07-23T16:36:52.929Z,9.83
2018-07-23T16:38:56.589Z,6.33
2018-07-23T16:41:00.599Z,8.07
2018-07-23T16:43:04.877Z,7.40
2018-07-23T16:45:08.575Z,6.50
2018-07-23T16:47:12.141Z,7.13
2018-07-23T16:49:15.725Z,6.73
2018-07-23T16:51:19.287Z,7.90
2018-07-23T16:53:22.912Z,6.93
2018-07-23T16:55:26.546Z,8.93
2018-07-23T16:57:30.463Z,7.90
2018-07-23T16:59:34.156Z,8.37
2018-07-23T17:01:37.691Z,7.53
2018-07-23T17:03:41.184Z,7.77
2018-07-23T17:05:47.270Z,8.13
2018-07-23T17:07:50.808Z,8.33
2018-07-23T17:09:54.478Z,7.90
2018-07-23T17:11:58.123Z,7.57
2018-07-23T17:14:01.679Z,8.83
2018-07-23T17:16:05.373Z,8.87
2018-07-23T17:18:09.095Z,8.00
2018-07-23T17:20:12.765Z,8.17
2018-07-23T17:22:16.373Z,9.00
2018-07-23T17:24:19.922Z,7.77
2018-07-23T17:26:23.529Z,9.03
2018-07-23T17:28:27.217Z,8.83
2018-07-23T17:30:30.906Z,7.73
2018-07-23T17:32:34.558Z,7.30
2018-07-23T17:34:38.150Z,6.83
2018-07-23T17:36:41.777Z,7.90
2018-07-23T17:38:45.350Z,7.33
2018-07-23T17:40:49.188Z,7.30
2018-07-23T17:42:53.131Z,8.40
2018-07-23T17:44:56.846Z,6.77
2018-07-23T17:47:00.776Z,6.60
2018-07-23T17:49:04.443Z,8.30
2018-07-23T17:51:08.075Z,5.67
2018-07-23T17:53:11.656Z,6.00
2018-07-23T17:55:15.285Z,5.87
2018-07-23T17:57:19.004Z,5.50
2018-07-23T17:59:22.645Z,5.47
2018-07-23T18:01:26.528Z,5.40
2018-07-23T18:03:30.125Z,5.53
2018-07-23T18:05:33.763Z,5.17
2018-07-23T18:07:37.751Z,5.57
2018-07-23T18:09:41.353Z,5.17
2018-07-23T18:11:45.320Z,4.70
2018-07-23T18:13:48.941Z,6.67
2018-07-23T18:15:52.635Z,4.90
2018-07-23T18:17:56.283Z,8.80
2018-07-23T18:19:59.941Z,4.33
2018-07-23T18:22:03.855Z,4.83
2018-07-23T18:24:07.456Z,4.60
2018-07-23T18:26:11.126Z,4.67
2018-07-23T18:28:14.788Z,4.63
2018-07-23T18:30:18.743Z,4.63
2018-07-23T18:32:22.462Z,5.33
2018-07-23T18:34:25.997Z,4.63
2018-07-23T18:36:29.591Z,4.63
2018-07-23T18:38:33.343Z,4.10
2018-07-23T18:40:36.993Z,5.97
2018-07-23T18:42:40.612Z,4.50
2018-07-23T18:44:44.311Z,7.10
2018-07-23T18:46:47.992Z,4.87
2018-07-23T18:49:30.167Z,5.30
2018-07-23T18:51:50.116Z,6.73
2018-07-23T18:53:53.697Z,4.63
2018-07-23T18:55:57.334Z,5.27
2018-07-23T18:58:00.927Z,5.67
2018-07-23T19:00:05.298Z,5.20
2018-07-23T19:02:10.609Z,4.63
2018-07-23T19:04:14.180Z,4.80
2018-07-23T19:06:17.957Z,5.43
2018-07-23T19:08:21.943Z,5.03
2018-07-23T19:10:25.618Z,4.57
2018-07-23T19:12:29.185Z,4.17
2018-07-23T19:14:32.845Z,5.70
2018-07-23T19:16:36.476Z,5.77
2018-07-23T19:18:40.093Z,7.73
2018-07-23T19:20:44.080Z,8.23
2018-07-23T19:22:47.839Z,7.03
2018-07-23T19:24:51.405Z,7.67
2018-07-23T19:26:56.004Z,6.63
2018-07-23T19:28:59.652Z,7.57
2018-07-23T19:31:03.314Z,8.40
2018-07-23T19:33:06.989Z,7.30
2018-07-23T19:35:10.943Z,7.27
2018-07-23T19:37:15.104Z,9.03
2018-07-23T19:39:20.097Z,7.70
2018-07-23T19:41:23.992Z,7.83
2018-07-23T19:43:27.848Z,8.20
2018-07-23T19:45:33.152Z,7.87
2018-07-23T19:47:36.782Z,7.33
2018-07-23T19:49:40.614Z,7.60
2018-07-23T19:51:44.260Z,7.63
2018-07-23T19:53:47.852Z,7.40
2018-07-23T19:55:51.452Z,7.40
2018-07-23T19:57:55.043Z,8.73
2018-07-23T19:59:58.605Z,6.73
2018-07-23T20:02:02.165Z,7.10
2018-07-23T20:04:06.088Z,6.50
2018-07-23T20:06:09.710Z,7.20
2018-07-23T20:08:13.408Z,9.33
2018-07-23T20:10:17.090Z,7.70
2018-07-23T20:12:20.683Z,10.00
2018-07-23T20:14:24.228Z,7.93
2018-07-23T20:16:27.766Z,9.47
2018-07-23T20:18:31.311Z,7.37
2018-07-23T20:20:34.932Z,6.87
2018-07-23T20:22:38.540Z,8.17
2018-07-23T20:24:42.123Z,7.30
2018-07-23T20:26:45.701Z,7.37
2018-07-23T20:28:49.342Z,7.30
2018-07-23T20:30:53.299Z,7.27
2018-07-23T20:32:56.920Z,8.27
2018-07-23T20:35:00.477Z,9.20
2018-07-23T20:37:04.246Z,6.40
2018-07-23T20:39:08.652Z,6.23
2018-07-23T20:41:12.272Z,6.10
2018-07-23T20:43:15.849Z,6.33
2018-07-23T20:45:19.457Z,6.60
2018-07-23T20:47:23.041Z,6.77
2018-07-23T20:49:26.605Z,8.57
2018-07-23T20:51:30.283Z,7.87
2018-07-23T20:53:33.996Z,6.67
2018-07-23T20:55:37.511Z,7.00
2018-07-23T20:57:41.125Z,6.47
2018-07-23T20:59:51.257Z,6.53
2018-07-23T21:01:54.870Z,7.63
2018-07-23T21:03:58.480Z,8.40
2018-07-23T21:06:02.251Z,6.73
2018-07-23T21:08:06.198Z,6.93
2018-07-23T21:10:09.844Z,6.83
2018-07-23T21:12:13.481Z,7.70
2018-07-23T21:14:17.004Z,7.27
2018-07-23T21:16:20.596Z,9.07
2018-07-23T21:18:24.221Z,8.33
2018-07-23T21:20:27.811Z,8.70
2018-07-23T21:22:31.811Z,9.20
2018-07-23T21:24:35.409Z,9.40
2018-07-23T21:26:39.044Z,8.37
2018-07-23T21:28:42.699Z,9.20
2018-07-23T21:30:46.337Z,9.77
2018-07-23T21:32:49.945Z,9.57
2018-07-23T21:34:53.593Z,11.03
2018-07-23T21:36:57.225Z,10.83
2018-07-23T21:39:00.865Z,10.87
2018-07-23T21:41:04.504Z,10.23
2018-07-23T21:43:08.114Z,11.13
2018-07-23T21:45:11.668Z,10.03
2018-07-23T21:47:15.288Z,10.73
2018-07-23T21:49:18.912Z,9.93
2018-07-23T21:51:22.503Z,10.10
2018-07-23T21:53:26.152Z,10.50
2018-07-23T21:55:29.720Z,11.07
2018-07-23T21:57:33.721Z,11.20
2018-07-23T21:59:37.297Z,11.17
2018-07-23T22:01:40.889Z,11.27
2018-07-23T22:03:44.539Z,11.03
2018-07-23T22:05:48.146Z,11.00
2018-07-23T22:07:51.767Z,13.00
2018-07-23T22:09:55.400Z,11.33
2018-07-23T22:11:59.102Z,10.33
2018-07-23T22:14:02.793Z,10.23
2018-07-23T22:16:06.617Z,8.90
2018-07-23T22:18:10.587Z,9.10
2018-07-23T22:20:14.242Z,9.33
2018-07-23T22:22:17.867Z,9.20
2018-07-23T22:24:21.408Z,9.00
2018-07-23T22:26:25.011Z,9.20
2018-07-23T22:28:28.649Z,10.07
2018-07-23T22:30:32.284Z,9.97
2018-07-23T22:32:35.875Z,9.77
2018-07-23T22:34:39.498Z,9.20
2018-07-23T22:36:43.105Z,9.57
2018-07-23T22:38:46.716Z,10.33
2018-07-23T22:40:50.313Z,9.00
2018-07-23T22:42:54.044Z,10.70
2018-07-23T22:44:57.585Z,11.17
2018-07-23T22:47:01.249Z,9.57
2018-07-23T22:49:04.885Z,9.97
2018-07-23T22:51:08.511Z,10.30
2018-07-23T22:53:12.086Z,9.73
2018-07-23T22:55:15.708Z,9.67
2018-07-23T22:57:19.542Z,9.30
2018-07-23T22:59:23.076Z,9.23
2018-07-23T23:01:26.662Z,9.57
2018-07-23T23:03:30.365Z,10.17
2018-07-23T23:05:34.316Z,10.87
2018-07-23T23:07:37.924Z,10.03
2018-07-23T23:09:41.570Z,10.20
2018-07-23T23:11:45.187Z,9.93
2018-07-23T23:13:48.858Z,10.90
2018-07-23T23:15:52.442Z,10.73
2018-07-23T23:17:56.047Z,11.40
2018-07-23T23:19:59.687Z,10.67
2018-07-23T23:22:03.292Z,9.87
2018-07-23T23:24:06.934Z,10.30
2018-07-23T23:26:10.490Z,10.47
2018-07-23T23:28:14.132Z,9.50
2018-07-23T23:30:19.509Z,10.17
2018-07-23T23:32:23.104Z,10.30
2018-07-23T23:34:26.671Z,9.90
2018-07-23T23:36:30.209Z,10.77
2018-07-23T23:38:33.848Z,11.47
2018-07-23T23:40:37.488Z,9.90
2018-07-23T23:42:41.090Z,9.70
2018-07-23T23:44:44.766Z,10.70
2018-07-23T23:46:48.318Z,10.63
2018-07-23T23:48:51.957Z,9.30
2018-07-23T23:50:55.969Z,11.37
2018-07-23T23:52:59.640Z,11.03
2018-07-23T23:55:03.281Z,11.03
2018-07-23T23:57:06.819Z,10.97
2018-07-23T23:59:10.389Z,11.07
